Madison, New Jersey
Current Conditions -  °F | °C
As of 12:45 PM on Monday 26 Jan 2015 (Local Time) from KMMU Reporting Station
Light Snow Light Snow  
Wind Chill: 12°   Ceiling: 2000
Heat Index: 23°   Visibility: 2.5mi
Dew Point: 16°   Wind: 12mph
Humidity: 74%   Direction: 50°NE
Pressure: 29.9"   Gusts: 24mph
Location:  40.76°N, 74.41°W
Report Text: KMMU 261745Z 05010G21KT 2 1/2 SM -SN OVC020 M05/M09 A2990
Loading
Personal Weather Stations






























Interactive Weather Map New forecast layout! Learn more

10-Day Weather Forecast

Advertisements
Track Severe Weather on mobile